Time;durP1;ratioP1;P1;durP2;ratioP2;P2;SDS_P1;SDS_P2;PMS_P1;PMS_P2;Temp;Humidity;BMP_temperature;BMP_pressure;BME280_temperature;BME280_humidity;BME280_pressure;Samples;Min_cycle;Max_cycle;Signal;HPM_P1;HPM_P2
2021/04/20 00:00:26;;;;;;;63.55;42.83;;;;;;;10.13;100.00;100531.78;5054194;28;20086;-75
2021/04/20 00:03:13;;;;;;;68.00;42.97;;;;;;;10.20;100.00;100537.75;5054916;28;20040;-74
2021/04/20 00:05:59;;;;;;;62.50;40.95;;;;;;;10.06;100.00;100535.38;5040967;28;20029;-74
2021/04/20 00:08:45;;;;;;;64.35;43.35;;;;;;;10.21;100.00;100535.09;5041020;28;20047;-75
2021/04/20 00:11:31;;;;;;;67.57;43.45;;;;;;;10.06;100.00;100535.38;5053829;28;20056;-73
2021/04/20 00:14:17;;;;;;;65.63;43.45;;;;;;;10.20;100.00;100532.50;5054503;28;20028;-75
2021/04/20 00:17:04;;;;;;;69.30;45.30;;;;;;;10.48;100.00;100524.06;5053755;28;20033;-74
2021/04/20 00:19:50;;;;;;;68.72;44.47;;;;;;;10.37;100.00;100531.28;5054478;28;20499;-74
2021/04/20 00:22:36;;;;;;;58.83;40.75;;;;;;;10.49;100.00;100520.56;5054303;28;20487;-75
2021/04/20 00:25:23;;;;;;;66.28;44.97;;;;;;;10.12;100.00;100518.69;5054045;28;20442;-76
2021/04/20 00:28:09;;;;;;;61.72;42.30;;;;;;;10.17;100.00;100525.59;5055101;28;20027;-74
2021/04/20 00:30:56;;;;;;;61.88;42.67;;;;;;;10.02;100.00;100526.66;5053960;28;20032;-75
2021/04/20 00:33:42;;;;;;;71.63;47.05;;;;;;;10.32;100.00;100524.44;5053332;28;20059;-75
2021/04/20 00:36:28;;;;;;;62.92;41.67;;;;;;;10.12;100.00;100516.94;5053239;28;20021;-74
2021/04/20 00:39:13;;;;;;;68.60;45.40;;;;;;;9.87;100.00;100520.84;5053702;28;20020;-74
2021/04/20 00:42:04;;;;;;;67.68;44.00;;;;;;;10.17;100.00;100517.72;5053609;28;20086;-75
2021/04/20 00:44:50;;;;;;;66.05;43.85;;;;;;;9.81;100.00;100520.97;5040622;28;20036;-75
2021/04/20 00:47:35;;;;;;;77.95;47.35;;;;;;;9.98;100.00;100517.16;5053620;28;20020;-75
2021/04/20 00:50:25;;;;;;;70.32;44.78;;;;;;;9.89;100.00;100519.09;5039998;28;20056;-75
2021/04/20 00:53:10;;;;;;;74.20;45.97;;;;;;;9.95;100.00;100522.47;5039313;28;20378;-74
2021/04/20 00:55:56;;;;;;;73.05;47.97;;;;;;;10.13;100.00;100518.69;5039014;28;20108;-74
2021/04/20 00:58:42;;;;;;;73.68;46.33;;;;;;;9.99;100.00;100518.03;5053963;28;20032;-74
2021/04/20 01:01:28;;;;;;;73.07;45.60;;;;;;;10.00;100.00;100520.63;5040312;28;20350;-74
2021/04/20 01:04:15;;;;;;;69.97;46.05;;;;;;;10.14;100.00;100518.63;5053267;28;20039;-74
2021/04/20 01:07:02;;;;;;;72.15;46.83;;;;;;;10.38;100.00;100511.19;5054254;28;20025;-74
2021/04/20 01:09:48;;;;;;;75.45;47.95;;;;;;;10.17;100.00;100517.72;5053488;28;20024;-75
2021/04/20 01:12:36;;;;;;;68.32;45.92;;;;;;;10.18;100.00;100522.06;5053980;28;20021;-75
2021/04/20 01:15:22;;;;;;;71.47;45.92;;;;;;;10.01;100.00;100517.09;5053997;28;20063;-74
2021/04/20 01:18:19;;;;;;;66.85;44.65;;;;;;;10.14;100.00;100516.00;5052753;28;20029;-75
2021/04/20 01:21:11;;;;;;;78.18;49.15;;;;;;;10.30;100.00;100519.22;5053443;28;20040;-75
2021/04/20 03:40:10;;;;;;;78.28;46.67;;;;;;;9.82;100.00;100590.72;5736764;22;20049;-74
2021/04/20 03:43:01;;;;;;;79.75;49.70;;;;;;;10.04;100.00;100599.94;5034584;28;20053;-75
2021/04/20 03:45:56;;;;;;;72.03;45.53;;;;;;;9.86;100.00;100600.25;5022290;28;20453;-75
2021/04/20 03:48:55;;;;;;;88.68;50.67;;;;;;;9.95;100.00;100607.94;5034949;28;20098;-75
2021/04/20 03:51:43;;;;;;;79.68;49.28;;;;;;;9.66;100.00;100605.78;5035131;28;20445;-74
2021/04/20 03:54:31;;;;;;;74.03;47.13;;;;;;;9.77;100.00;100610.88;5021500;28;20053;-76
2021/04/20 03:57:20;;;;;;;82.32;49.33;;;;;;;10.01;100.00;100610.47;5007959;28;20018;-75
2021/04/20 04:00:08;;;;;;;77.10;47.75;;;;;;;9.82;100.00;100619.50;5034696;28;20022;-76
2021/04/20 04:02:55;;;;;;;72.90;46.58;;;;;;;9.98;100.00;100619.22;5034368;28;20022;-75
2021/04/20 04:05:45;;;;;;;74.45;47.45;;;;;;;9.76;100.00;100627.44;5034675;28;20036;-75
2021/04/20 04:08:34;;;;;;;83.13;48.90;;;;;;;10.01;100.00;100631.41;5035000;28;20065;-75
2021/04/20 04:11:22;;;;;;;70.40;45.60;;;;;;;9.85;100.00;100629.94;5034701;28;20036;-76
2021/04/20 04:14:10;;;;;;;72.65;46.60;;;;;;;10.20;100.00;100632.00;5034211;28;20467;-75
2021/04/20 04:17:00;;;;;;;73.63;45.28;;;;;;;10.06;100.00;100635.69;5033780;28;20052;-75
2021/04/20 04:19:49;;;;;;;70.53;45.22;;;;;;;10.10;100.00;100639.97;5021629;28;20138;-76
2021/04/20 04:22:37;;;;;;;69.05;46.60;;;;;;;10.14;100.00;100638.19;5034943;28;20348;-76
2021/04/20 04:25:33;;;;;;;67.07;43.15;;;;;;;10.51;100.00;100643.63;5033912;28;20413;-76
2021/04/20 04:28:23;;;;;;;86.50;50.50;;;;;;;10.45;100.00;100644.59;5034814;28;20095;-76
2021/04/20 04:31:09;;;;;;;73.53;47.63;;;;;;;10.04;100.00;100636.56;5034315;28;20124;-76
2021/04/20 04:33:56;;;;;;;73.00;45.78;;;;;;;10.18;100.00;100648.56;5020546;28;20124;-76
2021/04/20 04:36:42;;;;;;;85.75;51.13;;;;;;;10.02;100.00;100654.06;5033241;28;20029;-75
2021/04/20 04:39:29;;;;;;;72.00;47.45;;;;;;;9.92;100.00;100649.84;5033673;28;20030;-76
2021/04/20 05:26:30;;;;;;;69.35;44.55;;;;;;;10.16;100.00;100691.38;5013080;28;20433;-75
2021/04/20 05:29:17;;;;;;;79.38;47.63;;;;;;;10.13;100.00;100688.81;5014722;28;20105;-75
2021/04/20 05:32:03;;;;;;;71.65;45.28;;;;;;;10.30;100.00;100689.41;5012237;28;20160;-74
2021/04/20 05:34:50;;;;;;;82.13;49.20;;;;;;;10.25;100.00;100688.63;5014008;28;20096;-75
2021/04/20 05:37:38;;;;;;;78.40;51.33;;;;;;;10.22;100.00;100687.78;5013048;28;20088;-74
2021/04/20 05:40:27;;;;;;;68.78;43.10;;;;;;;10.39;100.00;100698.84;5014480;28;20030;-75
2021/04/20 05:43:13;;;;;;;71.80;45.10;;;;;;;10.24;100.00;100684.25;5017879;28;20030;-76
2021/04/20 05:45:59;;;;;;;64.35;42.78;;;;;;;10.21;100.00;100702.66;5018494;28;20052;-75
2021/04/20 05:48:45;;;;;;;64.88;41.88;;;;;;;10.30;100.00;100699.88;5018281;28;20053;-75
2021/04/20 05:51:32;;;;;;;67.85;43.55;;;;;;;10.42;100.00;100696.19;5004291;28;20457;-75
2021/04/20 05:54:17;;;;;;;64.40;42.55;;;;;;;10.40;100.00;100693.59;5017236;28;20474;-75
2021/04/20 05:57:04;;;;;;;64.35;41.53;;;;;;;10.35;100.00;100705.03;5018243;28;20030;-75
2021/04/20 05:59:55;;;;;;;71.72;44.90;;;;;;;10.18;100.00;100700.09;5004110;28;20045;-76
2021/04/20 06:02:41;;;;;;;69.63;46.35;;;;;;;10.51;100.00;100704.75;5018085;28;20033;-75
2021/04/20 06:05:28;;;;;;;71.43;45.38;;;;;;;10.50;100.00;100710.00;5004430;28;20041;-76
2021/04/20 06:08:14;;;;;;;61.75;41.15;;;;;;;10.33;100.00;100706.81;4990084;28;20064;-74
2021/04/20 06:11:03;;;;;;;61.03;39.75;;;;;;;10.62;100.00;100708.06;5002858;28;20042;-75
2021/04/20 06:13:53;;;;;;;64.00;42.00;;;;;;;10.60;100.00;100709.81;5017945;28;20025;-75
2021/04/20 06:16:39;;;;;;;60.40;39.90;;;;;;;10.67;100.00;100711.44;5016819;28;20466;-75
2021/04/20 06:19:25;;;;;;;64.82;42.28;;;;;;;10.48;100.00;100710.03;5016509;28;20073;-75
2021/04/20 06:22:16;;;;;;;65.55;41.92;;;;;;;10.74;100.00;100706.97;5016831;28;20128;-75
2021/04/20 06:25:03;;;;;;;59.58;39.85;;;;;;;10.73;100.00;100708.69;5017151;28;20194;-75
2021/04/20 06:27:49;;;;;;;56.92;37.63;;;;;;;11.03;100.00;100702.91;5017065;28;20029;-75
2021/04/20 06:30:35;;;;;;;60.83;40.70;;;;;;;11.06;100.00;100709.84;5001894;28;20088;-77
2021/04/20 06:33:23;;;;;;;62.33;43.55;;;;;;;11.17;100.00;100713.13;5017028;28;20077;-75
2021/04/20 06:36:10;;;;;;;60.05;39.80;;;;;;;10.96;100.00;100719.63;5017114;28;20378;-75
2021/04/20 06:38:56;;;;;;;61.00;40.75;;;;;;;11.16;100.00;100714.88;5017138;28;20117;-75
2021/04/20 06:41:43;;;;;;;57.63;38.00;;;;;;;11.14;100.00;100706.19;5016010;28;20477;-76
2021/04/20 06:44:45;;;;;;;58.97;39.03;;;;;;;11.04;100.00;100715.09;5017294;28;20034;-75
2021/04/20 06:47:42;;;;;;;61.97;40.15;;;;;;;11.31;100.00;100713.69;5001428;28;20032;-75
2021/04/20 06:50:32;;;;;;;56.20;37.58;;;;;;;11.34;100.00;100713.63;5004205;28;20077;-76
2021/04/20 06:53:19;;;;;;;59.17;40.40;;;;;;;11.13;100.00;100720.16;5015683;28;20089;-75
2021/04/20 06:56:26;;;;;;;55.80;36.70;;;;;;;10.87;100.00;100717.19;5016694;28;20111;-75
2021/04/20 06:59:22;;;;;;;56.38;36.92;;;;;;;11.26;100.00;100721.66;5016003;28;20069;-75
2021/04/20 07:02:33;;;;;;;57.53;39.08;;;;;;;11.60;100.00;100719.19;5016442;28;20034;-75
2021/04/20 07:05:34;;;;;;;52.35;36.83;;;;;;;11.83;100.00;100722.22;5015126;28;20040;-75
2021/04/20 07:09:18;;;;;;;53.60;37.42;;;;;;;11.51;100.00;100719.38;5016643;28;20037;-75
2021/04/20 07:12:04;;;;;;;52.92;35.78;;;;;;;11.42;100.00;100730.97;4937312;29;20105;-74
2021/04/20 07:14:55;;;;;;;50.60;35.22;;;;;;;11.48;100.00;100730.81;4937987;29;20424;-75
2021/04/20 07:17:59;;;;;;;52.88;36.60;;;;;;;11.71;100.00;100735.59;5016201;28;20030;-74
2021/04/20 07:21:22;;;;;;;51.13;36.78;;;;;;;11.83;100.00;100732.72;5016936;28;20382;-74
2021/04/20 07:24:27;;;;;;;49.90;35.78;;;;;;;11.58;100.00;100742.81;5002423;28;20036;-75
2021/04/20 07:27:50;;;;;;;50.35;36.08;;;;;;;11.74;100.00;100739.00;5001659;28;20033;-75
2021/04/20 07:30:49;;;;;;;49.15;34.70;;;;;;;11.89;100.00;100743.94;5014924;28;20025;-75
2021/04/20 07:33:50;;;;;;;48.53;33.75;;;;;;;11.70;100.00;100749.63;5015013;28;20033;-75
2021/04/20 07:36:35;;;;;;;48.00;34.53;;;;;;;11.75;100.00;100751.25;5014709;28;20057;-76
2021/04/20 07:39:23;;;;;;;43.00;31.70;;;;;;;11.79;100.00;100749.44;5002219;28;20469;-76
2021/04/20 07:42:23;;;;;;;40.42;31.23;;;;;;;11.63;100.00;100754.16;5015649;28;20060;-75
2021/04/20 07:45:23;;;;;;;45.25;34.00;;;;;;;11.53;100.00;100752.56;5016103;28;20348;-73
2021/04/20 07:48:20;;;;;;;46.65;32.35;;;;;;;11.86;100.00;100754.50;5014626;28;20108;-76
2021/04/20 07:51:16;;;;;;;40.78;31.35;;;;;;;11.85;100.00;100752.78;5015587;28;20041;-75
2021/04/20 07:54:41;;;;;;;45.90;31.65;;;;;;;12.15;100.00;100752.09;5000626;28;20481;-74
2021/04/20 07:57:44;;;;;;;38.15;29.35;;;;;;;11.89;100.00;100767.56;4937470;28;20480;-76
2021/04/20 08:00:34;;;;;;;38.72;29.30;;;;;;;11.92;100.00;100764.88;4936601;29;20488;-73
2021/04/20 08:03:43;;;;;;;37.92;29.27;;;;;;;11.97;100.00;100760.38;5014782;28;20160;-73
2021/04/20 08:06:33;;;;;;;42.83;33.95;;;;;;;12.62;100.00;100771.97;5014883;28;20030;-74
2021/04/20 08:09:27;;;;;;;38.22;29.75;;;;;;;12.34;100.00;100768.28;5015224;28;20443;-74
2021/04/20 08:12:37;;;;;;;39.67;30.60;;;;;;;11.94;100.00;100760.44;5014209;28;20113;-73
2021/04/20 08:15:36;;;;;;;36.55;27.65;;;;;;;12.07;100.00;100769.78;5015046;28;20030;-73
2021/04/20 08:18:34;;;;;;;35.45;26.80;;;;;;;12.09;100.00;100775.00;5014845;28;20037;-73
2021/04/20 08:21:21;;;;;;;33.22;25.65;;;;;;;11.90;100.00;100777.16;5015244;28;20081;-73
2021/04/20 08:24:14;;;;;;;34.20;27.10;;;;;;;12.43;100.00;100768.94;5014163;28;20048;-74
2021/04/20 08:27:16;;;;;;;37.72;29.05;;;;;;;12.30;100.00;100772.72;5002105;28;20022;-74
2021/04/20 08:30:14;;;;;;;40.67;30.83;;;;;;;12.12;100.00;100778.44;5014452;28;20033;-73
2021/04/20 08:33:08;;;;;;;38.90;29.23;;;;;;;11.99;100.00;100790.09;5014629;28;20029;-74
2021/04/20 08:35:57;;;;;;;37.17;28.75;;;;;;;12.12;100.00;100781.06;4999518;28;20026;-74
2021/04/20 08:39:18;;;;;;;36.80;29.75;;;;;;;11.98;100.00;100792.75;5015804;28;20072;-73
2021/04/20 08:42:13;;;;;;;36.63;27.85;;;;;;;11.55;100.00;100792.78;5014760;28;20022;-74
2021/04/20 08:45:10;;;;;;;34.60;26.65;;;;;;;11.80;100.00;100794.03;5015421;28;20065;-74
2021/04/20 08:48:13;;;;;;;37.78;29.65;;;;;;;12.36;100.00;100796.25;5000030;28;20056;-74
2021/04/20 08:51:04;;;;;;;37.28;28.00;;;;;;;12.40;100.00;100790.03;5015192;28;20479;-75
2021/04/20 08:54:17;;;;;;;36.55;28.85;;;;;;;12.44;100.00;100796.06;5015298;28;20115;-74
2021/04/20 08:57:37;;;;;;;33.83;26.83;;;;;;;11.96;100.00;100797.16;5015169;28;20034;-75
2021/04/20 09:00:34;;;;;;;32.80;27.02;;;;;;;11.69;100.00;100805.66;5014658;28;20130;-75
2021/04/20 09:03:38;;;;;;;34.85;25.90;;;;;;;12.09;100.00;100798.66;5016442;28;20033;-74
2021/04/20 09:06:51;;;;;;;37.53;26.58;;;;;;;12.15;100.00;100801.13;5015036;28;20029;-74
2021/04/20 09:09:45;;;;;;;30.15;24.63;;;;;;;12.41;100.00;100804.00;5015619;28;20029;-72
2021/04/20 09:12:34;;;;;;;33.95;25.40;;;;;;;12.61;100.00;100802.63;5015997;28;20021;-73
2021/04/20 09:15:25;;;;;;;36.00;26.42;;;;;;;12.51;100.00;100801.16;5014243;28;20026;-73
2021/04/20 09:18:17;;;;;;;33.47;25.48;;;;;;;12.11;100.00;100802.97;5000714;28;20084;-75
2021/04/20 09:21:10;;;;;;;32.63;24.90;;;;;;;12.56;100.00;100804.53;5013997;28;20045;-73
2021/04/20 09:24:05;;;;;;;33.03;25.83;;;;;;;11.78;100.00;100802.81;5057715;22;20474;-75
2021/04/20 09:26:59;;;;;;;33.53;25.48;;;;;;;12.45;100.00;100805.66;5035432;28;20025;-74
2021/04/20 09:30:11;;;;;;;36.83;27.13;;;;;;;12.33;100.00;100801.56;5033006;28;20029;-74
2021/04/20 09:33:06;;;;;;;34.88;27.10;;;;;;;12.12;100.00;100803.81;5033885;28;20030;-74
2021/04/20 09:35:53;;;;;;;33.47;26.08;;;;;;;11.97;100.00;100810.28;5019763;28;20397;-74
2021/04/20 09:38:42;;;;;;;32.75;26.65;;;;;;;12.45;100.00;100803.03;5034362;28;20044;-75
2021/04/20 09:41:44;;;;;;;31.33;23.77;;;;;;;11.60;100.00;100806.69;5019582;28;20140;-74
2021/04/20 09:45:07;;;;;;;32.53;25.35;;;;;;;12.05;100.00;100805.72;5020011;28;20470;-75
2021/04/20 09:48:14;;;;;;;31.75;24.77;;;;;;;12.13;100.00;100809.03;5032916;28;20022;-75
2021/04/20 09:51:14;;;;;;;31.88;22.98;;;;;;;11.57;100.00;100804.09;5020454;28;20446;-74
2021/04/20 09:54:22;;;;;;;30.98;23.10;;;;;;;11.74;100.00;100804.63;5033542;28;20033;-74
2021/04/20 09:57:11;;;;;;;29.38;23.83;;;;;;;12.27;100.00;100799.09;5034050;28;20065;-75
2021/04/20 10:00:04;;;;;;;31.30;24.15;;;;;;;12.37;100.00;100807.59;5032537;28;20091;-74
2021/04/20 10:03:01;;;;;;;30.30;22.35;;;;;;;12.28;100.00;100806.06;5032942;28;20026;-74
2021/04/20 10:06:29;;;;;;;29.88;23.33;;;;;;;12.69;100.00;100812.94;5019483;28;20097;-73
2021/04/20 10:09:42;;;;;;;26.75;20.55;;;;;;;12.19;100.00;100814.16;5013430;28;20033;-74
2021/04/20 10:12:43;;;;;;;29.38;22.40;;;;;;;12.41;100.00;100804.88;5033136;28;20037;-74
2021/04/20 10:15:46;;;;;;;29.30;22.45;;;;;;;13.38;100.00;100809.41;5033787;28;20454;-74
2021/04/20 10:18:43;;;;;;;27.58;21.42;;;;;;;13.70;100.00;100808.50;5033585;28;20104;-73
2021/04/20 10:21:37;;;;;;;30.27;20.63;;;;;;;13.55;100.00;100811.59;5032639;28;20037;-74
2021/04/20 10:24:32;;;;;;;26.83;20.83;;;;;;;12.91;100.00;100811.53;5033834;28;20041;-73
2021/04/20 10:27:25;;;;;;;27.05;20.67;;;;;;;13.39;100.00;100803.22;5035372;28;20454;-75
2021/04/20 10:30:19;;;;;;;23.42;19.55;;;;;;;13.31;100.00;100804.38;5036122;28;20033;-73
2021/04/20 10:33:06;;;;;;;24.33;20.30;;;;;;;13.40;100.00;100799.72;5023447;28;20022;-74
2021/04/20 10:35:58;;;;;;;24.90;20.10;;;;;;;13.46;100.00;100799.53;5036101;28;20033;-74
2021/04/20 10:38:45;;;;;;;23.20;18.50;;;;;;;13.70;100.00;100800.59;5036235;28;20033;-73
2021/04/20 10:41:34;;;;;;;21.67;16.92;;;;;;;13.48;100.00;100805.63;5035654;28;20071;-74
2021/04/20 10:44:24;;;;;;;19.25;16.17;;;;;;;13.50;100.00;100801.16;5036258;28;20109;-74
2021/04/20 10:47:10;;;;;;;23.52;18.10;;;;;;;13.31;100.00;100801.72;5035794;28;20022;-75
2021/04/20 10:49:58;;;;;;;23.80;18.50;;;;;;;13.97;100.00;100805.06;5036442;28;20035;-75
2021/04/20 10:52:46;;;;;;;20.98;17.30;;;;;;;14.28;100.00;100798.00;5022092;28;20033;-74
2021/04/20 10:55:34;;;;;;;22.50;17.08;;;;;;;13.64;100.00;100809.56;5009091;28;20036;-75
2021/04/20 10:58:25;;;;;;;25.20;18.75;;;;;;;13.79;100.00;100793.28;5036843;28;20017;-75
2021/04/20 11:01:18;;;;;;;19.63;16.13;;;;;;;14.62;100.00;100796.88;5035529;28;20032;-75
2021/04/20 11:04:06;;;;;;;18.88;15.32;;;;;;;13.87;100.00;100798.34;5035563;28;20466;-74
2021/04/20 11:07:34;;;;;;;20.65;18.02;;;;;;;14.75;100.00;100795.53;5035552;28;20032;-73
2021/04/20 11:10:26;;;;;;;18.33;15.77;;;;;;;14.46;100.00;100794.75;5035662;28;20056;-74
2021/04/20 11:13:12;;;;;;;20.70;16.50;;;;;;;15.34;100.00;100793.50;5055215;23;20056;-74
2021/04/20 11:15:58;;;;;;;22.27;16.63;;;;;;;15.30;100.00;100791.88;5055912;28;20029;-74
2021/04/20 11:18:53;;;;;;;15.52;13.52;;;;;;;14.94;100.00;100793.16;5056875;28;20377;-74
2021/04/20 11:21:43;;;;;;;15.07;12.50;;;;;;;14.48;100.00;100788.53;5055978;28;20021;-75
2021/04/20 11:24:33;;;;;;;15.55;12.70;;;;;;;14.36;100.00;100791.56;5036532;28;20104;-74
2021/04/20 11:27:22;;;;;;;16.08;12.88;;;;;;;15.29;100.00;100789.28;5036578;28;20022;-75
2021/04/20 11:30:13;;;;;;;15.10;12.85;;;;;;;15.80;100.00;100782.16;5035059;28;20029;-74
2021/04/20 11:33:08;;;;;;;17.00;13.75;;;;;;;15.90;100.00;100788.78;5022271;28;20327;-75
2021/04/20 11:35:57;;;;;;;16.25;14.43;;;;;;;15.55;100.00;100779.53;5035652;28;20025;-74
2021/04/20 11:38:47;;;;;;;14.30;12.35;;;;;;;15.84;100.00;100789.03;5035400;28;20033;-74
2021/04/20 11:41:46;;;;;;;14.77;12.55;;;;;;;16.27;100.00;100789.13;5035989;28;20136;-73
2021/04/20 11:44:40;;;;;;;14.75;11.93;;;;;;;15.96;100.00;100784.16;5036261;28;20029;-75
2021/04/20 11:47:26;;;;;;;16.13;12.23;;;;;;;16.50;100.00;100784.66;5034663;28;20068;-74
2021/04/20 11:50:13;;;;;;;13.95;12.43;;;;;;;16.44;100.00;100782.25;5035216;28;20025;-74
2021/04/20 11:53:03;;;;;;;15.00;13.27;;;;;;;15.83;100.00;100776.75;5035009;28;20095;-75
2021/04/20 11:55:55;;;;;;;15.30;13.57;;;;;;;16.14;100.00;100771.97;5035214;28;20045;-75
2021/04/20 11:58:43;;;;;;;13.48;12.10;;;;;;;16.21;100.00;100774.34;5035441;28;20423;-74
2021/04/20 12:01:32;;;;;;;14.57;12.60;;;;;;;15.51;100.00;100775.28;5034925;28;20026;-74
2021/04/20 12:04:25;;;;;;;15.15;13.32;;;;;;;15.90;100.00;100770.28;5034872;28;20083;-75
2021/04/20 12:07:10;;;;;;;14.00;12.50;;;;;;;16.18;100.00;100774.47;5034768;28;20025;-74
2021/04/20 12:09:58;;;;;;;15.80;12.75;;;;;;;15.65;100.00;100774.78;5034735;28;20036;-74
2021/04/20 12:12:50;;;;;;;14.98;13.38;;;;;;;16.10;100.00;100763.31;5035380;28;20488;-74
2021/04/20 12:15:37;;;;;;;16.27;13.38;;;;;;;16.29;100.00;100771.38;5035934;28;20091;-74
2021/04/20 12:18:25;;;;;;;15.25;13.27;;;;;;;15.51;100.00;100769.16;5035052;28;20037;-73
2021/04/20 12:21:18;;;;;;;15.48;13.27;;;;;;;15.69;100.00;100758.78;5035024;28;20033;-74
2021/04/20 12:24:07;;;;;;;14.48;12.90;;;;;;;15.81;100.00;100757.44;5034665;28;20394;-74
2021/04/20 12:26:56;;;;;;;16.40;13.23;;;;;;;16.29;100.00;100752.88;5036239;28;20021;-74
2021/04/20 12:29:47;;;;;;;13.45;12.02;;;;;;;16.75;100.00;100747.44;5034012;28;20033;-74
2021/04/20 12:32:33;;;;;;;14.18;12.32;;;;;;;16.81;100.00;100745.44;5034569;28;20439;-74
2021/04/20 12:35:29;;;;;;;15.38;12.63;;;;;;;16.66;100.00;100735.47;5034085;28;20032;-73
2021/04/20 12:38:20;;;;;;;13.48;11.75;;;;;;;16.68;100.00;100736.25;5034713;28;20026;-75
2021/04/20 12:41:08;;;;;;;14.27;12.77;;;;;;;16.93;100.00;100731.69;5033458;28;20056;-73
2021/04/20 12:43:57;;;;;;;15.02;13.43;;;;;;;16.62;100.00;100727.72;5033989;28;20095;-74
2021/04/20 12:46:43;;;;;;;14.73;12.27;;;;;;;17.08;100.00;100716.91;5019737;28;20044;-76
2021/04/20 12:49:32;;;;;;;18.15;13.20;;;;;;;16.88;100.00;100724.84;5033166;28;20104;-73
2021/04/20 12:52:23;;;;;;;13.35;11.95;;;;;;;16.92;100.00;100726.44;5034071;28;20094;-74
2021/04/20 12:55:15;;;;;;;14.00;12.45;;;;;;;16.79;100.00;100726.09;5031965;28;20098;-74
2021/04/20 12:58:15;;;;;;;16.75;13.90;;;;;;;16.43;100.00;100716.22;5033860;28;20033;-72
2021/04/20 13:01:05;;;;;;;16.20;13.73;;;;;;;16.88;100.00;100719.56;5035012;28;20458;-73
2021/04/20 13:03:52;;;;;;;16.85;13.68;;;;;;;16.89;100.00;100713.34;5033416;28;20461;-73
2021/04/20 13:06:39;;;;;;;16.70;14.60;;;;;;;16.20;100.00;100719.72;5034442;28;20441;-73
2021/04/20 13:09:39;;;;;;;16.95;14.80;;;;;;;16.44;100.00;100715.28;5033856;28;20029;-74
2021/04/20 13:12:26;;;;;;;19.13;14.68;;;;;;;16.53;100.00;100715.75;5031188;28;20152;-73
2021/04/20 13:15:14;;;;;;;16.48;14.85;;;;;;;16.78;100.00;100718.22;5034997;28;20385;-73
2021/04/20 13:18:03;;;;;;;17.48;14.13;;;;;;;16.97;100.00;100713.84;5032469;28;20036;-73
2021/04/20 13:20:55;;;;;;;14.82;12.82;;;;;;;16.40;100.00;100713.66;5033236;28;20025;-73
2021/04/20 13:23:45;;;;;;;15.23;13.65;;;;;;;16.94;100.00;100716.63;5032194;28;20030;-74
2021/04/20 13:26:37;;;;;;;15.90;14.20;;;;;;;17.17;100.00;100719.16;5034753;28;20014;-73
2021/04/20 13:29:28;;;;;;;15.38;13.77;;;;;;;16.84;100.00;100717.97;5021769;28;20022;-74
2021/04/20 13:32:20;;;;;;;15.85;14.02;;;;;;;16.83;100.00;100713.59;5019331;28;20488;-74
2021/04/20 13:35:08;;;;;;;14.45;13.00;;;;;;;16.92;100.00;100715.84;5032687;28;20025;-73
2021/04/20 13:37:56;;;;;;;14.73;13.13;;;;;;;16.95;100.00;100713.94;5032189;28;20129;-73
2021/04/20 13:40:42;;;;;;;14.18;12.65;;;;;;;17.06;100.00;100719.63;5032141;28;20025;-73
2021/04/20 13:43:29;;;;;;;14.93;13.30;;;;;;;16.96;100.00;100713.00;5034064;28;20025;-73
2021/04/20 13:46:16;;;;;;;19.10;13.93;;;;;;;16.81;100.00;100713.69;5033625;28;20034;-73
2021/04/20 13:49:06;;;;;;;13.57;12.27;;;;;;;16.94;100.00;100711.34;5033356;28;20022;-73
2021/04/20 13:52:02;;;;;;;23.08;20.65;;;;;;;17.30;100.00;100717.66;5019857;28;20045;-73
2021/04/20 13:54:57;;;;;;;16.08;14.50;;;;;;;17.13;100.00;100712.25;5032590;28;20033;-72
2021/04/20 13:57:55;;;;;;;16.48;14.82;;;;;;;17.07;100.00;100720.47;5033633;28;20037;-74
2021/04/20 14:00:43;;;;;;;17.33;15.52;;;;;;;17.37;100.00;100709.38;5032078;28;20017;-72
2021/04/20 14:03:37;;;;;;;17.50;15.70;;;;;;;16.85;100.00;100717.03;5037294;28;20029;-73
2021/04/20 14:06:22;;;;;;;17.30;15.50;;;;;;;16.79;100.00;100712.00;5035647;28;20501;-73
2021/04/20 14:09:12;;;;;;;18.23;16.33;;;;;;;16.82;100.00;100722.44;5037492;28;20036;-73
2021/04/20 14:12:11;;;;;;;17.65;15.82;;;;;;;17.17;100.00;100721.78;5037371;28;20112;-73
2021/04/20 14:15:10;;;;;;;18.40;16.42;;;;;;;16.86;100.00;100709.03;5023954;28;20061;-74
2021/04/20 14:17:59;;;;;;;17.83;16.00;;;;;;;16.68;100.00;100712.44;5022539;28;20481;-74
2021/04/20 14:20:47;;;;;;;21.17;18.98;;;;;;;16.85;100.00;100722.34;5036838;28;20025;-73
2021/04/20 14:23:38;;;;;;;21.70;18.13;;;;;;;16.80;100.00;100727.81;5035519;28;20029;-74
2021/04/20 14:26:35;;;;;;;35.85;30.50;;;;;;;16.57;100.00;100714.72;5036433;28;20022;-74
2021/04/20 14:29:23;;;;;;;21.15;18.75;;;;;;;16.96;100.00;100715.63;5035857;28;20044;-74
2021/04/20 14:32:12;;;;;;;25.05;19.38;;;;;;;16.89;100.00;100721.28;5036305;28;20405;-74
2021/04/20 14:35:05;;;;;;;19.60;17.60;;;;;;;16.66;100.00;100721.38;5035929;28;20069;-75
2021/04/20 14:37:51;;;;;;;19.65;17.55;;;;;;;16.77;100.00;100719.16;5035888;28;20017;-74
2021/04/20 14:40:38;;;;;;;18.65;16.63;;;;;;;16.56;100.00;100718.25;5036423;28;20097;-74
2021/04/20 14:43:27;;;;;;;21.27;17.50;;;;;;;16.72;100.00;100723.78;5035165;28;20064;-75
2021/04/20 14:46:14;;;;;;;18.50;16.70;;;;;;;16.70;100.00;100726.50;5037710;28;20049;-74
2021/04/20 14:48:59;;;;;;;17.98;16.02;;;;;;;16.55;100.00;100729.78;5035792;28;20123;-74
2021/04/20 14:51:51;;;;;;;17.70;15.90;;;;;;;16.12;100.00;100742.13;5036161;28;20366;-73
2021/04/20 14:54:43;;;;;;;26.17;20.75;;;;;;;16.00;100.00;100737.31;5036671;28;20030;-74
2021/04/20 14:57:33;;;;;;;27.10;23.45;;;;;;;15.51;100.00;100748.88;5036734;28;20026;-75
2021/04/20 15:00:20;;;;;;;17.52;12.23;;;;;;;15.01;100.00;100749.81;5036025;28;20033;-74
2021/04/20 15:03:07;;;;;;;10.70;8.93;;;;;;;14.91;100.00;100753.66;5037674;28;20036;-74
2021/04/20 15:06:01;;;;;;;9.55;8.25;;;;;;;14.94;100.00;100748.28;5035331;28;20037;-74
2021/04/20 15:09:14;;;;;;;10.15;9.10;;;;;;;14.86;100.00;100760.03;5035729;28;20027;-75
2021/04/20 15:12:13;;;;;;;13.13;11.10;;;;;;;13.95;100.00;100759.47;5035081;28;20021;-75
2021/04/20 15:15:13;;;;;;;19.05;12.07;;;;;;;14.24;100.00;100762.94;5035844;28;20038;-74
2021/04/20 15:18:08;;;;;;;14.45;12.52;;;;;;;13.95;100.00;100765.59;5034972;28;20025;-74
2021/04/20 15:21:07;;;;;;;19.65;15.82;;;;;;;14.52;100.00;100757.66;5035625;28;20476;-75
2021/04/20 15:24:00;;;;;;;16.08;14.10;;;;;;;13.85;100.00;100758.88;5022155;28;20029;-74
2021/04/20 15:26:51;;;;;;;20.20;15.30;;;;;;;14.09;100.00;100755.50;5022272;28;20102;-74
2021/04/20 15:29:39;;;;;;;19.88;16.10;;;;;;;14.79;100.00;100754.97;5036550;28;20037;-75
2021/04/20 15:32:31;;;;;;;19.35;16.35;;;;;;;14.57;100.00;100753.97;5036241;28;20421;-74
2021/04/20 15:35:29;;;;;;;21.92;17.13;;;;;;;14.95;100.00;100762.38;5035253;28;20477;-75
2021/04/20 15:38:25;;;;;;;22.38;17.92;;;;;;;15.87;100.00;100750.13;5035493;28;20026;-74
2021/04/20 15:41:12;;;;;;;22.67;17.92;;;;;;;15.69;100.00;100756.13;5035798;28;20036;-74
2021/04/20 15:44:01;;;;;;;20.73;16.73;;;;;;;15.71;100.00;100748.16;5020824;28;20037;-74
2021/04/20 15:46:52;;;;;;;17.55;13.20;;;;;;;15.45;100.00;100750.88;5033993;28;20370;-74
2021/04/20 15:49:43;;;;;;;13.93;12.25;;;;;;;15.53;100.00;100754.09;5034991;28;20037;-75
2021/04/20 15:52:38;;;;;;;9.70;8.70;;;;;;;15.58;100.00;100745.09;5034502;28;20068;-75
2021/04/20 15:55:27;;;;;;;9.75;8.30;;;;;;;15.40;100.00;100750.19;5034901;28;20025;-74